sensor_id;sensor_type;location;lat;lon;timestamp;pressure;altitude;pressure_sealevel;temperature;humidity
51928;BME280;37953;52.806;18.270;2023-03-23T00:01:25;99819.59;;;12.25;100.00
51928;BME280;37953;52.806;18.270;2023-03-23T00:03:52;99814.38;;;12.25;100.00
51928;BME280;37953;52.806;18.270;2023-03-23T00:06:19;99822.19;;;12.25;100.00
51928;BME280;37953;52.806;18.270;2023-03-23T00:08:47;99818.75;;;12.24;100.00
51928;BME280;37953;52.806;18.270;2023-03-23T00:11:17;99813.53;;;12.24;100.00
51928;BME280;37953;52.806;18.270;2023-03-23T00:13:49;99815.28;;;12.24;100.00
51928;BME280;37953;52.806;18.270;2023-03-23T00:16:21;99816.16;;;12.22;100.00
51928;BME280;37953;52.806;18.270;2023-03-23T00:18:54;99806.63;;;12.21;100.00
51928;BME280;37953;52.806;18.270;2023-03-23T00:21:22;99809.25;;;12.20;100.00
51928;BME280;37953;52.806;18.270;2023-03-23T00:23:51;99799.69;;;12.19;100.00
51928;BME280;37953;52.806;18.270;2023-03-23T00:26:29;99806.66;;;12.18;100.00
51928;BME280;37953;52.806;18.270;2023-03-23T00:28:59;99804.97;;;12.17;100.00
51928;BME280;37953;52.806;18.270;2023-03-23T00:31:26;99791.94;;;12.16;100.00
51928;BME280;37953;52.806;18.270;2023-03-23T00:33:57;99782.38;;;12.16;100.00
51928;BME280;37953;52.806;18.270;2023-03-23T00:36:24;99780.69;;;12.15;100.00
51928;BME280;37953;52.806;18.270;2023-03-23T00:38:49;99786.75;;;12.14;100.00
51928;BME280;37953;52.806;18.270;2023-03-23T00:41:15;99797.16;;;12.14;100.00
51928;BME280;37953;52.806;18.270;2023-03-23T00:43:41;99803.28;;;12.13;100.00
51928;BME280;37953;52.806;18.270;2023-03-23T00:46:07;99798.06;;;12.13;100.00
51928;BME280;37953;52.806;18.270;2023-03-23T00:48:37;99796.31;;;12.12;100.00
51928;BME280;37953;52.806;18.270;2023-03-23T00:51:10;99801.53;;;12.12;100.00
51928;BME280;37953;52.806;18.270;2023-03-23T00:53:37;99802.44;;;12.11;100.00
51928;BME280;37953;52.806;18.270;2023-03-23T00:56:03;99791.16;;;12.11;100.00
51928;BME280;37953;52.806;18.270;2023-03-23T00:58:28;99787.69;;;12.10;100.00
51928;BME280;37953;52.806;18.270;2023-03-23T01:00:54;99789.44;;;12.08;100.00
51928;BME280;37953;52.806;18.270;2023-03-23T01:03:22;99786.00;;;12.08;100.00
51928;BME280;37953;52.806;18.270;2023-03-23T01:05:51;99782.53;;;12.06;100.00
51928;BME280;37953;52.806;18.270;2023-03-23T01:08:18;99774.72;;;12.06;100.00
51928;BME280;37953;52.806;18.270;2023-03-23T01:10:44;99780.84;;;12.05;100.00
51928;BME280;37953;52.806;18.270;2023-03-23T01:13:10;99786.03;;;12.05;100.00
51928;BME280;37953;52.806;18.270;2023-03-23T01:15:36;99784.31;;;12.04;100.00
51928;BME280;37953;52.806;18.270;2023-03-23T01:18:02;99787.81;;;12.02;100.00
51928;BME280;37953;52.806;18.270;2023-03-23T01:20:43;99787.81;;;12.01;100.00
51928;BME280;37953;52.806;18.270;2023-03-23T01:23:09;99783.47;;;12.01;100.00
51928;BME280;37953;52.806;18.270;2023-03-23T01:25:35;99779.16;;;12.00;100.00
51928;BME280;37953;52.806;18.270;2023-03-23T01:28:01;99774.81;;;12.01;100.00
51928;BME280;37953;52.806;18.270;2023-03-23T01:30:27;99770.47;;;12.00;100.00
51928;BME280;37953;52.806;18.270;2023-03-23T01:32:54;99773.97;;;11.99;100.00
51928;BME280;37953;52.806;18.270;2023-03-23T01:35:23;99773.13;;;11.98;100.00
51928;BME280;37953;52.806;18.270;2023-03-23T01:37:49;99769.63;;;11.99;100.00
51928;BME280;37953;52.806;18.270;2023-03-23T01:40:15;99770.50;;;11.98;100.00
51928;BME280;37953;52.806;18.270;2023-03-23T01:42:41;99779.19;;;11.99;100.00
51928;BME280;37953;52.806;18.270;2023-03-23T01:47:49;99749.69;;;11.98;100.00
51928;BME280;37953;52.806;18.270;2023-03-23T01:50:17;99757.50;;;11.98;100.00
51928;BME280;37953;52.806;18.270;2023-03-23T01:52:42;99752.28;;;11.98;100.00
51928;BME280;37953;52.806;18.270;2023-03-23T01:55:15;99755.75;;;11.97;100.00
51928;BME280;37953;52.806;18.270;2023-03-23T01:57:41;99750.56;;;11.97;100.00
51928;BME280;37953;52.806;18.270;2023-03-23T02:00:07;99748.81;;;11.98;100.00
51928;BME280;37953;52.806;18.270;2023-03-23T02:02:43;99741.88;;;11.98;100.00
51928;BME280;37953;52.806;18.270;2023-03-23T02:05:11;99735.78;;;11.98;100.00
51928;BME280;37953;52.806;18.270;2023-03-23T02:07:38;99739.28;;;11.98;100.00
51928;BME280;37953;52.806;18.270;2023-03-23T02:10:05;99744.47;;;11.98;100.00
51928;BME280;37953;52.806;18.270;2023-03-23T02:12:30;99743.59;;;11.98;100.00
51928;BME280;37953;52.806;18.270;2023-03-23T02:14:56;99739.22;;;12.00;100.00
51928;BME280;37953;52.806;18.270;2023-03-23T02:30:49;99727.09;;;12.00;100.00
51928;BME280;37953;52.806;18.270;2023-03-23T02:33:29;99727.94;;;12.01;100.00
51928;BME280;37953;52.806;18.270;2023-03-23T02:36:12;99726.22;;;12.00;100.00
51928;BME280;37953;52.806;18.270;2023-03-23T02:41:18;99736.63;;;12.00;100.00
51928;BME280;37953;52.806;18.270;2023-03-23T02:43:49;99727.97;;;11.99;100.00
51928;BME280;37953;52.806;18.270;2023-03-23T02:46:21;99719.31;;;11.99;100.00
51928;BME280;37953;52.806;18.270;2023-03-23T02:48:47;99709.75;;;11.99;100.00
51928;BME280;37953;52.806;18.270;2023-03-23T02:51:18;99714.09;;;11.99;100.00
51928;BME280;37953;52.806;18.270;2023-03-23T02:53:44;99723.66;;;11.98;100.00
51928;BME280;37953;52.806;18.270;2023-03-23T02:56:11;99713.25;;;11.97;100.00
51928;BME280;37953;52.806;18.270;2023-03-23T02:58:38;99707.19;;;11.96;100.00
51928;BME280;37953;52.806;18.270;2023-03-23T03:03:49;99689.91;;;11.92;100.00
51928;BME280;37953;52.806;18.270;2023-03-23T03:12:05;99685.63;;;11.87;100.00
51928;BME280;37953;52.806;18.270;2023-03-23T03:14:50;99697.78;;;11.85;100.00
51928;BME280;37953;52.806;18.270;2023-03-23T03:17:20;99690.88;;;11.84;100.00
51928;BME280;37953;52.806;18.270;2023-03-23T03:19:48;99689.13;;;11.84;100.00
51928;BME280;37953;52.806;18.270;2023-03-23T03:22:20;99693.47;;;11.84;100.00
51928;BME280;37953;52.806;18.270;2023-03-23T03:24:56;99686.53;;;11.82;100.00
51928;BME280;37953;52.806;18.270;2023-03-23T03:27:23;99691.75;;;11.82;100.00
51928;BME280;37953;52.806;18.270;2023-03-23T03:29:52;99696.94;;;11.84;100.00
51928;BME280;37953;52.806;18.270;2023-03-23T03:32:29;99688.28;;;11.84;100.00
51928;BME280;37953;52.806;18.270;2023-03-23T03:35:00;99693.47;;;11.84;100.00
51928;BME280;37953;52.806;18.270;2023-03-23T03:37:33;99693.47;;;11.84;100.00
51928;BME280;37953;52.806;18.270;2023-03-23T03:39:59;99690.88;;;11.84;100.00
51928;BME280;37953;52.806;18.270;2023-03-23T03:42:25;99692.59;;;11.85;100.00
51928;BME280;37953;52.806;18.270;2023-03-23T03:44:51;99696.03;;;11.85;100.00
51928;BME280;37953;52.806;18.270;2023-03-23T03:47:17;99687.38;;;11.85;100.00
51928;BME280;37953;52.806;18.270;2023-03-23T03:49:43;99692.56;;;11.86;100.00
51928;BME280;37953;52.806;18.270;2023-03-23T03:52:09;99696.88;;;11.87;100.00
51928;BME280;37953;52.806;18.270;2023-03-23T03:54:35;99694.28;;;11.87;100.00
51928;BME280;37953;52.806;18.270;2023-03-23T03:57:01;99683.84;;;11.87;100.00
51928;BME280;37953;52.806;18.270;2023-03-23T03:59:27;99683.84;;;11.87;100.00
51928;BME280;37953;52.806;18.270;2023-03-23T04:01:53;99676.94;;;11.88;100.00
51928;BME280;37953;52.806;18.270;2023-03-23T04:04:20;99669.13;;;11.88;100.00
51928;BME280;37953;52.806;18.270;2023-03-23T04:06:47;99670.88;;;11.89;100.00
51928;BME280;37953;52.806;18.270;2023-03-23T04:09:14;99663.94;;;11.88;100.00
51928;BME280;37953;52.806;18.270;2023-03-23T04:11:40;99666.50;;;11.89;100.00
51928;BME280;37953;52.806;18.270;2023-03-23T04:14:05;99659.59;;;11.88;100.00
51928;BME280;37953;52.806;18.270;2023-03-23T04:16:32;99668.25;;;11.87;100.00
51928;BME280;37953;52.806;18.270;2023-03-23T04:19:00;99672.59;;;11.87;100.00
51928;BME280;37953;52.806;18.270;2023-03-23T04:21:26;99667.41;;;11.87;100.00
51928;BME280;37953;52.806;18.270;2023-03-23T04:23:54;99657.00;;;11.87;100.00
51928;BME280;37953;52.806;18.270;2023-03-23T04:26:21;99657.84;;;11.87;100.00
51928;BME280;37953;52.806;18.270;2023-03-23T04:28:46;99664.78;;;11.87;100.00
51928;BME280;37953;52.806;18.270;2023-03-23T04:31:12;99662.19;;;11.87;100.00
51928;BME280;37953;52.806;18.270;2023-03-23T04:33:40;99653.53;;;11.85;100.00
51928;BME280;37953;52.806;18.270;2023-03-23T04:36:06;99670.94;;;11.82;100.00
51928;BME280;37953;52.806;18.270;2023-03-23T04:38:32;99671.84;;;11.80;100.00
51928;BME280;37953;52.806;18.270;2023-03-23T04:40:59;99668.41;;;11.78;100.00
51928;BME280;37953;52.806;18.270;2023-03-23T04:43:27;99660.66;;;11.75;100.00
51928;BME280;37953;52.806;18.270;2023-03-23T04:45:54;99658.94;;;11.72;100.00
51928;BME280;37953;52.806;18.270;2023-03-23T04:48:26;99646.84;;;11.68;100.00
51928;BME280;37953;52.806;18.270;2023-03-23T04:51:00;99654.72;;;11.64;100.00
51928;BME280;37953;52.806;18.270;2023-03-23T04:53:28;99652.16;;;11.62;100.00
51928;BME280;37953;52.806;18.270;2023-03-23T04:56:01;99657.38;;;11.62;100.00
51928;BME280;37953;52.806;18.270;2023-03-23T04:58:27;99658.25;;;11.61;100.00
51928;BME280;37953;52.806;18.270;2023-03-23T05:00:54;99654.78;;;11.60;100.00
51928;BME280;37953;52.806;18.270;2023-03-23T05:03:20;99653.94;;;11.60;100.00
51928;BME280;37953;52.806;18.270;2023-03-23T05:05:46;99663.44;;;11.63;100.00
51928;BME280;37953;52.806;18.270;2023-03-23T05:08:19;99659.06;;;11.65;100.00
51928;BME280;37953;52.806;18.270;2023-03-23T05:10:52;99648.63;;;11.66;100.00
51928;BME280;37953;52.806;18.270;2023-03-23T05:13:18;99632.13;;;11.67;100.00
51928;BME280;37953;52.806;18.270;2023-03-23T05:15:44;99641.69;;;11.67;100.00
51928;BME280;37953;52.806;18.270;2023-03-23T05:18:10;99642.56;;;11.66;100.00
51928;BME280;37953;52.806;18.270;2023-03-23T05:20:37;99639.03;;;11.68;100.00
51928;BME280;37953;52.806;18.270;2023-03-23T05:23:03;99633.00;;;11.68;100.00
51928;BME280;37953;52.806;18.270;2023-03-23T05:25:29;99631.25;;;11.68;100.00
51928;BME280;37953;52.806;18.270;2023-03-23T05:27:54;99632.97;;;11.69;100.00
51928;BME280;37953;52.806;18.270;2023-03-23T05:30:20;99638.19;;;11.69;100.00
51928;BME280;37953;52.806;18.270;2023-03-23T05:32:46;99636.44;;;11.70;100.00
51928;BME280;37953;52.806;18.270;2023-03-23T05:35:16;99622.56;;;11.69;100.00
51928;BME280;37953;52.806;18.270;2023-03-23T05:37:42;99634.69;;;11.70;100.00
51928;BME280;37953;52.806;18.270;2023-03-23T05:40:09;99633.81;;;11.71;100.00
51928;BME280;37953;52.806;18.270;2023-03-23T05:42:37;99637.25;;;11.73;100.00
51928;BME280;37953;52.806;18.270;2023-03-23T05:45:04;99642.38;;;11.76;100.00
51928;BME280;37953;52.806;18.270;2023-03-23T05:47:39;99625.06;;;11.77;100.00
51928;BME280;37953;52.806;18.270;2023-03-23T05:50:06;99622.41;;;11.78;100.00
51928;BME280;37953;52.806;18.270;2023-03-23T05:52:42;99616.34;;;11.79;100.00
51928;BME280;37953;52.806;18.270;2023-03-23T05:55:08;99618.03;;;11.80;100.00
51928;BME280;37953;52.806;18.270;2023-03-23T05:57:40;99622.34;;;11.83;100.00
51928;BME280;37953;52.806;18.270;2023-03-23T06:00:06;99613.66;;;11.84;100.00
51928;BME280;37953;52.806;18.270;2023-03-23T06:02:45;99619.69;;;11.88;100.00
51928;BME280;37953;52.806;18.270;2023-03-23T06:05:11;99613.59;;;11.89;100.00
51928;BME280;37953;52.806;18.270;2023-03-23T06:07:37;99617.06;;;11.91;100.00
51928;BME280;37953;52.806;18.270;2023-03-23T06:10:08;99602.28;;;11.91;100.00
51928;BME280;37953;52.806;18.270;2023-03-23T06:12:35;99609.22;;;11.92;100.00
51928;BME280;37953;52.806;18.270;2023-03-23T06:15:00;99597.91;;;11.95;100.00
51928;BME280;37953;52.806;18.270;2023-03-23T06:17:26;99590.91;;;11.97;100.00
51928;BME280;37953;52.806;18.270;2023-03-23T06:19:53;99593.50;;;11.98;100.00
51928;BME280;37953;52.806;18.270;2023-03-23T06:22:19;99580.44;;;12.00;100.00
51928;BME280;37953;52.806;18.270;2023-03-23T06:24:44;99580.41;;;12.03;100.00
51928;BME280;37953;52.806;18.270;2023-03-23T06:27:10;99586.47;;;12.04;100.00
51928;BME280;37953;52.806;18.270;2023-03-23T06:29:36;99588.16;;;12.06;100.00
51928;BME280;37953;52.806;18.270;2023-03-23T06:32:03;99596.78;;;12.08;100.00
51928;BME280;37953;52.806;18.270;2023-03-23T06:34:30;99588.09;;;12.09;100.00
51928;BME280;37953;52.806;18.270;2023-03-23T06:36:59;99585.50;;;12.11;100.00
51928;BME280;37953;52.806;18.270;2023-03-23T06:39:26;99582.84;;;12.12;100.00
51928;BME280;37953;52.806;18.270;2023-03-23T06:41:51;99597.53;;;12.15;100.00
51928;BME280;37953;52.806;18.270;2023-03-23T06:44:17;99602.72;;;12.16;100.00
51928;BME280;37953;52.806;18.270;2023-03-23T06:46:44;99599.25;;;12.17;100.00
51928;BME280;37953;52.806;18.270;2023-03-23T06:49:09;99596.59;;;12.19;100.00
51928;BME280;37953;52.806;18.270;2023-03-23T06:51:35;99600.09;;;12.19;100.00
51928;BME280;37953;52.806;18.270;2023-03-23T06:54:02;99598.31;;;12.21;100.00
51928;BME280;37953;52.806;18.270;2023-03-23T06:56:28;99581.78;;;12.22;100.00
51928;BME280;37953;52.806;18.270;2023-03-23T06:58:55;99584.41;;;12.22;100.00
51928;BME280;37953;52.806;18.270;2023-03-23T07:01:21;99583.53;;;12.24;100.00
51928;BME280;37953;52.806;18.270;2023-03-23T07:03:47;99573.94;;;12.26;100.00
51928;BME280;37953;52.806;18.270;2023-03-23T07:06:14;99572.19;;;12.26;100.00
51928;BME280;37953;52.806;18.270;2023-03-23T07:08:40;99580.84;;;12.28;100.00
51928;BME280;37953;52.806;18.270;2023-03-23T07:11:06;99581.69;;;12.29;100.00
51928;BME280;37953;52.806;18.270;2023-03-23T07:13:32;99586.88;;;12.30;100.00
51928;BME280;37953;52.806;18.270;2023-03-23T07:15:58;99597.22;;;12.32;100.00
51928;BME280;37953;52.806;18.270;2023-03-23T07:18:25;99590.25;;;12.34;100.00
51928;BME280;37953;52.806;18.270;2023-03-23T07:20:59;99600.63;;;12.37;100.00
51928;BME280;37953;52.806;18.270;2023-03-23T07:23:26;99600.63;;;12.38;100.00
51928;BME280;37953;52.806;18.270;2023-03-23T07:25:51;99603.16;;;12.41;100.00
51928;BME280;37953;52.806;18.270;2023-03-23T07:28:17;99601.38;;;12.43;100.00
51928;BME280;37953;52.806;18.270;2023-03-23T07:30:44;99590.03;;;12.46;100.00
51928;BME280;37953;52.806;18.270;2023-03-23T07:33:10;99602.09;;;12.50;100.00
51928;BME280;37953;52.806;18.270;2023-03-23T07:35:36;99592.53;;;12.52;100.00
51928;BME280;37953;52.806;18.270;2023-03-23T07:38:02;99589.00;;;12.55;100.00
51928;BME280;37953;52.806;18.270;2023-03-23T07:40:29;99598.50;;;12.57;100.00
51928;BME280;37953;52.806;18.270;2023-03-23T07:42:59;99581.13;;;12.58;100.00
51928;BME280;37953;52.806;18.270;2023-03-23T07:45:25;99581.09;;;12.59;100.00
51928;BME280;37953;52.806;18.270;2023-03-23T07:47:52;99576.72;;;12.61;100.00
51928;BME280;37953;52.806;18.270;2023-03-23T07:50:18;99576.66;;;12.65;100.00
51928;BME280;37953;52.806;18.270;2023-03-23T07:52:48;99574.88;;;12.67;100.00
51928;BME280;37953;52.806;18.270;2023-03-23T07:55:14;99573.09;;;12.69;100.00
51928;BME280;37953;52.806;18.270;2023-03-23T07:57:46;99570.41;;;12.72;100.00
51928;BME280;37953;52.806;18.270;2023-03-23T08:00:13;99569.53;;;12.74;100.00
51928;BME280;37953;52.806;18.270;2023-03-23T08:02:48;99572.88;;;12.79;100.00
51928;BME280;37953;52.806;18.270;2023-03-23T08:05:15;99573.69;;;12.83;100.00
51928;BME280;37953;52.806;18.270;2023-03-23T08:07:42;99584.84;;;12.88;100.00
51928;BME280;37953;52.806;18.270;2023-03-23T08:10:08;99580.41;;;12.93;100.00
51928;BME280;37953;52.806;18.270;2023-03-23T08:12:38;99591.59;;;12.98;100.00
51928;BME280;37953;52.806;18.270;2023-03-23T08:15:04;99585.44;;;13.02;100.00
51928;BME280;37953;52.806;18.270;2023-03-23T08:17:32;99581.88;;;13.07;100.00
51928;BME280;37953;52.806;18.270;2023-03-23T08:19:58;99581.78;;;13.10;100.00
51928;BME280;37953;52.806;18.270;2023-03-23T08:22:24;99580.88;;;13.12;100.00
51928;BME280;37953;52.806;18.270;2023-03-23T08:24:50;99577.38;;;13.13;100.00
51928;BME280;37953;52.806;18.270;2023-03-23T08:27:16;99581.66;;;13.16;100.00
51928;BME280;37953;52.806;18.270;2023-03-23T08:29:44;99577.25;;;13.18;100.00
51928;BME280;37953;52.806;18.270;2023-03-23T08:32:14;99579.81;;;13.21;100.00
51928;BME280;37953;52.806;18.270;2023-03-23T08:34:40;99581.50;;;13.23;100.00
51928;BME280;37953;52.806;18.270;2023-03-23T08:37:07;99586.69;;;13.25;100.00
51928;BME280;37953;52.806;18.270;2023-03-23T08:39:34;99584.91;;;13.27;100.00
51928;BME280;37953;52.806;18.270;2023-03-23T08:42:00;99588.34;;;13.29;100.00
51928;BME280;37953;52.806;18.270;2023-03-23T08:44:26;99597.88;;;13.32;100.00
51928;BME280;37953;52.806;18.270;2023-03-23T08:46:52;99593.41;;;13.35;100.00
51928;BME280;37953;52.806;18.270;2023-03-23T08:49:24;99601.22;;;13.37;100.00
51928;BME280;37953;52.806;18.270;2023-03-23T08:51:51;99584.63;;;13.39;100.00
51928;BME280;37953;52.806;18.270;2023-03-23T08:54:17;99587.19;;;13.42;100.00
51928;BME280;37953;52.806;18.270;2023-03-23T08:56:43;99585.41;;;13.44;100.00
51928;BME280;37953;52.806;18.270;2023-03-23T08:59:09;99586.22;;;13.47;100.00
51928;BME280;37953;52.806;18.270;2023-03-23T09:01:41;99587.03;;;13.49;100.00
51928;BME280;37953;52.806;18.270;2023-03-23T09:04:07;99580.03;;;13.51;100.00
51928;BME280;37953;52.806;18.270;2023-03-23T09:06:35;99576.50;;;13.53;100.00
51928;BME280;37953;52.806;18.270;2023-03-23T09:09:01;99576.47;;;13.55;100.00
51928;BME280;37953;52.806;18.270;2023-03-23T09:11:35;99582.50;;;13.57;100.00
51928;BME280;37953;52.806;18.270;2023-03-23T09:14:02;99581.56;;;13.59;100.00
51928;BME280;37953;52.806;18.270;2023-03-23T09:16:28;99575.44;;;13.60;100.00
51928;BME280;37953;52.806;18.270;2023-03-23T09:18:54;99578.00;;;13.63;100.00
51928;BME280;37953;52.806;18.270;2023-03-23T09:21:23;99577.09;;;13.64;100.00
51928;BME280;37953;52.806;18.270;2023-03-23T09:23:49;99584.84;;;13.68;100.00
51928;BME280;37953;52.806;18.270;2023-03-23T09:26:21;99568.22;;;13.72;100.00
51928;BME280;37953;52.806;18.270;2023-03-23T09:28:47;99572.50;;;13.74;100.00
51928;BME280;37953;52.806;18.270;2023-03-23T09:31:13;99568.09;;;13.76;100.00
51928;BME280;37953;52.806;18.270;2023-03-23T09:33:39;99566.31;;;13.78;100.00
51928;BME280;37953;52.806;18.270;2023-03-23T09:36:05;99563.66;;;13.80;100.00
51928;BME280;37953;52.806;18.270;2023-03-23T09:38:33;99566.16;;;13.84;100.00
51928;BME280;37953;52.806;18.270;2023-03-23T09:43:44;99574.66;;;13.93;100.00
51928;BME280;37953;52.806;18.270;2023-03-23T09:48:49;99565.78;;;14.00;100.00
51928;BME280;37953;52.806;18.270;2023-03-23T09:54:05;99570.81;;;14.08;100.00
51928;BME280;37953;52.806;18.270;2023-03-23T09:56:35;99565.41;;;14.14;100.00
51928;BME280;37953;52.806;18.270;2023-03-23T10:01:30;99566.88;;;14.24;100.00
51928;BME280;37953;52.806;18.270;2023-03-23T10:04:12;99577.19;;;14.29;100.00
51928;BME280;37953;52.806;18.270;2023-03-23T10:06:40;99574.47;;;14.33;100.00
51928;BME280;37953;52.806;18.270;2023-03-23T10:09:05;99572.63;;;14.37;100.00
51928;BME280;37953;52.806;18.270;2023-03-23T10:22:33;99575.59;;;14.57;100.00
51928;BME280;37953;52.806;18.270;2023-03-23T10:30:27;99586.59;;;14.69;100.00
51928;BME280;37953;52.806;18.270;2023-03-23T10:32:56;99580.44;;;14.71;100.00
51928;BME280;37953;52.806;18.270;2023-03-23T10:35:25;99579.47;;;14.74;100.00
51928;BME280;37953;52.806;18.270;2023-03-23T10:37:53;99583.78;;;14.75;100.00
51928;BME280;37953;52.806;18.270;2023-03-23T10:40:22;99589.00;;;14.76;100.00
51928;BME280;37953;52.806;18.270;2023-03-23T10:42:53;99583.72;;;14.78;100.00
51928;BME280;37953;52.806;18.270;2023-03-23T10:45:27;99592.38;;;14.80;100.00
51928;BME280;37953;52.806;18.270;2023-03-23T10:50:40;99596.63;;;14.84;100.00
51928;BME280;37953;52.806;18.270;2023-03-23T10:55:57;99600.00;;;14.88;100.00
51928;BME280;37953;52.806;18.270;2023-03-23T10:58:33;99595.69;;;14.86;100.00
51928;BME280;37953;52.806;18.270;2023-03-23T11:01:00;99607.03;;;14.85;100.00
51928;BME280;37953;52.806;18.270;2023-03-23T11:03:39;99607.91;;;14.86;100.00
51928;BME280;37953;52.806;18.270;2023-03-23T11:06:07;99621.84;;;14.85;100.00
51928;BME280;37953;52.806;18.270;2023-03-23T11:08:56;99627.09;;;14.85;100.00
51928;BME280;37953;52.806;18.270;2023-03-23T11:11:30;99618.47;;;14.81;100.00
51928;BME280;37953;52.806;18.270;2023-03-23T11:19:20;99624.69;;;14.77;100.00
51928;BME280;37953;52.806;18.270;2023-03-23T11:21:50;99628.22;;;14.76;100.00
51928;BME280;37953;52.806;18.270;2023-03-23T11:24:18;99623.91;;;14.75;100.00
51928;BME280;37953;52.806;18.270;2023-03-23T11:26:44;99626.53;;;14.74;100.00
51928;BME280;37953;52.806;18.270;2023-03-23T11:31:46;99644.91;;;14.71;100.00
51928;BME280;37953;52.806;18.270;2023-03-23T11:36:47;99649.31;;;14.69;100.00
51928;BME280;37953;52.806;18.270;2023-03-23T11:39:27;99661.56;;;14.66;100.00
51928;BME280;37953;52.806;18.270;2023-03-23T11:41:54;99659.06;;;14.63;100.00
51928;BME280;37953;52.806;18.270;2023-03-23T11:44:21;99664.31;;;14.62;100.00
51928;BME280;37953;52.806;18.270;2023-03-23T11:47:00;99658.34;;;14.58;100.00
51928;BME280;37953;52.806;18.270;2023-03-23T11:49:41;99658.41;;;14.55;100.00
51928;BME280;37953;52.806;18.270;2023-03-23T11:55:00;99651.63;;;14.46;100.00
51928;BME280;37953;52.806;18.270;2023-03-23T11:57:28;99650.84;;;14.43;100.00
51928;BME280;37953;52.806;18.270;2023-03-23T11:59:56;99657.88;;;14.41;100.00
51928;BME280;37953;52.806;18.270;2023-03-23T12:02:32;99652.72;;;14.39;100.00
51928;BME280;37953;52.806;18.270;2023-03-23T12:05:36;99651.00;;;14.37;100.00
51928;BME280;37953;52.806;18.270;2023-03-23T12:07:56;99649.31;;;14.36;100.00
51928;BME280;37953;52.806;18.270;2023-03-23T12:10:39;99647.56;;;14.35;100.00
51928;BME280;37953;52.806;18.270;2023-03-23T12:13:17;99642.34;;;14.35;100.00
51928;BME280;37953;52.806;18.270;2023-03-23T12:16:17;99635.41;;;14.34;100.00
51928;BME280;37953;52.806;18.270;2023-03-23T12:26:45;99639.69;;;14.38;100.00
51928;BME280;37953;52.806;18.270;2023-03-23T12:47:41;99632.56;;;14.43;100.00
51928;BME280;37953;52.806;18.270;2023-03-23T12:50:17;99637.84;;;14.41;100.00
51928;BME280;37953;52.806;18.270;2023-03-23T12:52:50;99636.09;;;14.42;100.00
51928;BME280;37953;52.806;18.270;2023-03-23T12:55:36;99634.31;;;14.42;100.00
51928;BME280;37953;52.806;18.270;2023-03-23T12:58:06;99637.78;;;14.43;100.00
51928;BME280;37953;52.806;18.270;2023-03-23T13:03:25;99636.00;;;14.45;100.00
51928;BME280;37953;52.806;18.270;2023-03-23T13:05:54;99637.72;;;14.46;100.00
51928;BME280;37953;52.806;18.270;2023-03-23T13:08:25;99638.53;;;14.48;100.00
51928;BME280;37953;52.806;18.270;2023-03-23T13:10:53;99642.84;;;14.49;100.00
51928;BME280;37953;52.806;18.270;2023-03-23T13:13:39;99645.44;;;14.51;100.00
51928;BME280;37953;52.806;18.270;2023-03-23T13:21:10;99638.53;;;14.48;100.00
51928;BME280;37953;52.806;18.270;2023-03-23T13:23:41;99640.25;;;14.49;100.00
51928;BME280;37953;52.806;18.270;2023-03-23T13:26:11;99637.63;;;14.49;100.00
51928;BME280;37953;52.806;18.270;2023-03-23T13:28:48;99635.84;;;14.50;100.00
51928;BME280;37953;52.806;18.270;2023-03-23T13:31:16;99636.75;;;14.50;100.00
51928;BME280;37953;52.806;18.270;2023-03-23T13:33:52;99636.75;;;14.50;100.00
51928;BME280;37953;52.806;18.270;2023-03-23T13:39:04;99637.63;;;14.49;100.00
51928;BME280;37953;52.806;18.270;2023-03-23T13:41:33;99633.25;;;14.50;100.00
51928;BME280;37953;52.806;18.270;2023-03-23T13:46:53;99631.53;;;14.49;100.00
51928;BME280;37953;52.806;18.270;2023-03-23T13:49:31;99629.78;;;14.49;100.00
51928;BME280;37953;52.806;18.270;2023-03-23T13:52:00;99633.25;;;14.50;100.00
51928;BME280;37953;52.806;18.270;2023-03-23T13:54:43;99637.63;;;14.49;100.00
51928;BME280;37953;52.806;18.270;2023-03-23T13:59:58;99630.59;;;14.51;100.00
51928;BME280;37953;52.806;18.270;2023-03-23T14:02:29;99631.44;;;14.52;100.00
51928;BME280;37953;52.806;18.270;2023-03-23T14:07:58;99632.28;;;14.54;100.00
51928;BME280;37953;52.806;18.270;2023-03-23T14:10:34;99634.00;;;14.55;100.00
51928;BME280;37953;52.806;18.270;2023-03-23T14:13:01;99631.38;;;14.56;100.00
51928;BME280;37953;52.806;18.270;2023-03-23T14:15:29;99637.44;;;14.58;100.00
51928;BME280;37953;52.806;18.270;2023-03-23T14:17:55;99621.75;;;14.58;100.00
51928;BME280;37953;52.806;18.270;2023-03-23T14:20:34;99629.53;;;14.60;100.00
51928;BME280;37953;52.806;18.270;2023-03-23T14:23:02;99628.56;;;14.62;100.00
51928;BME280;37953;52.806;18.270;2023-03-23T14:25:29;99629.47;;;14.63;100.00
51928;BME280;37953;52.806;18.270;2023-03-23T14:27:56;99617.25;;;14.63;100.00
51928;BME280;37953;52.806;18.270;2023-03-23T14:30:23;99624.16;;;14.64;100.00
51928;BME280;37953;52.806;18.270;2023-03-23T14:32:53;99616.31;;;14.64;100.00
51928;BME280;37953;52.806;18.270;2023-03-23T14:37:46;99611.91;;;14.66;100.00
51928;BME280;37953;52.806;18.270;2023-03-23T14:40:13;99606.69;;;14.66;100.00
51928;BME280;37953;52.806;18.270;2023-03-23T14:42:40;99609.28;;;14.66;100.00
51928;BME280;37953;52.806;18.270;2023-03-23T14:45:07;99608.44;;;14.66;100.00
51928;BME280;37953;52.806;18.270;2023-03-23T14:47:34;99614.53;;;14.66;100.00
51928;BME280;37953;52.806;18.270;2023-03-23T14:50:06;99603.22;;;14.66;100.00